sensor_id;sensor_type;location;lat;lon;timestamp;pressure;altitude;pressure_sealevel;temperature;humidity
77263;BME280;66373;52.334;4.806;2023-07-22T00:02:24;101318.84;;;21.23;49.87
77263;BME280;66373;52.334;4.806;2023-07-22T00:04:51;101318.84;;;21.23;50.05
77263;BME280;66373;52.334;4.806;2023-07-22T00:07:26;101259.63;;;20.87;49.92
77263;BME280;66373;52.334;4.806;2023-07-22T00:09:53;101325.78;;;21.24;50.25
77263;BME280;66373;52.334;4.806;2023-07-22T00:12:20;101298.28;;;21.08;50.27
77263;BME280;66373;52.334;4.806;2023-07-22T00:14:51;101317.16;;;21.19;50.10
77263;BME280;66373;52.334;4.806;2023-07-22T00:17:19;101294.06;;;21.04;50.36
77263;BME280;66373;52.334;4.806;2023-07-22T00:19:46;101305.16;;;21.12;50.42
77263;BME280;66373;52.334;4.806;2023-07-22T00:22:14;101315.47;;;21.18;50.21
77263;BME280;66373;52.334;4.806;2023-07-22T00:24:44;101258.06;;;20.80;50.34
77263;BME280;66373;52.334;4.806;2023-07-22T00:27:11;101301.72;;;21.10;50.04
77263;BME280;66373;52.334;4.806;2023-07-22T00:29:38;101297.56;;;21.03;50.66
77263;BME280;66373;52.334;4.806;2023-07-22T00:32:07;101316.38;;;21.16;50.35
77263;BME280;66373;52.334;4.806;2023-07-22T00:34:35;101304.25;;;21.13;50.48
77263;BME280;66373;52.334;4.806;2023-07-22T00:37:02;101302.44;;;21.15;50.40
77263;BME280;66373;52.334;4.806;2023-07-22T00:39:29;101304.13;;;21.18;50.52
77263;BME280;66373;52.334;4.806;2023-07-22T00:41:58;101286.19;;;21.04;50.43
77263;BME280;66373;52.334;4.806;2023-07-22T00:44:25;101291.25;;;21.10;50.14
77263;BME280;66373;52.334;4.806;2023-07-22T00:46:54;101293.72;;;21.16;50.72
77263;BME280;66373;52.334;4.806;2023-07-22T00:49:23;101281.72;;;21.08;50.44
77263;BME280;66373;52.334;4.806;2023-07-22T00:51:52;101251.84;;;20.84;50.99
77263;BME280;66373;52.334;4.806;2023-07-22T00:54:19;101280.13;;;21.04;50.61
77263;BME280;66373;52.334;4.806;2023-07-22T00:56:47;101243.19;;;20.82;50.97
77263;BME280;66373;52.334;4.806;2023-07-22T00:59:16;101281.72;;;21.08;50.97
77263;BME280;66373;52.334;4.806;2023-07-22T01:01:43;101258.56;;;20.94;50.71
77263;BME280;66373;52.334;4.806;2023-07-22T01:04:10;101283.41;;;21.10;51.14
77263;BME280;66373;52.334;4.806;2023-07-22T01:06:37;101284.34;;;21.08;51.10
77263;BME280;66373;52.334;4.806;2023-07-22T01:09:05;101182.28;;;20.46;51.18
77263;BME280;66373;52.334;4.806;2023-07-22T01:11:34;101213.88;;;20.71;50.89
77263;BME280;66373;52.334;4.806;2023-07-22T01:14:01;101243.19;;;20.82;51.16
77263;BME280;66373;52.334;4.806;2023-07-22T01:16:31;101253.13;;;21.02;51.09
77263;BME280;66373;52.334;4.806;2023-07-22T01:18:58;101260.19;;;20.98;51.36
77263;BME280;66373;52.334;4.806;2023-07-22T01:21:25;101253.41;;;20.91;50.94
77263;BME280;66373;52.334;4.806;2023-07-22T01:23:55;101165.81;;;20.42;50.97
77263;BME280;66373;52.334;4.806;2023-07-22T01:26:22;101258.38;;;21.02;50.95
77263;BME280;66373;52.334;4.806;2023-07-22T01:28:50;101207.91;;;20.65;51.33
77263;BME280;66373;52.334;4.806;2023-07-22T01:31:17;101175.88;;;20.57;51.04
77263;BME280;66373;52.334;4.806;2023-07-22T01:33:44;101244.50;;;20.98;51.50
77263;BME280;66373;52.334;4.806;2023-07-22T01:36:11;101258.31;;;21.03;51.09
77263;BME280;66373;52.334;4.806;2023-07-22T01:38:38;101263.56;;;21.03;51.60
77263;BME280;66373;52.334;4.806;2023-07-22T01:41:06;101258.44;;;20.98;51.19
77263;BME280;66373;52.334;4.806;2023-07-22T01:43:34;101210.31;;;20.73;51.38
77263;BME280;66373;52.334;4.806;2023-07-22T01:46:01;101231.72;;;20.87;51.45
77263;BME280;66373;52.334;4.806;2023-07-22T01:48:28;101230.69;;;20.93;51.32
77263;BME280;66373;52.334;4.806;2023-07-22T01:50:55;101159.63;;;20.46;51.46
77263;BME280;66373;52.334;4.806;2023-07-22T01:53:22;101236.03;;;20.88;51.46
77263;BME280;66373;52.334;4.806;2023-07-22T01:55:49;101199.22;;;20.63;51.47
77263;BME280;66373;52.334;4.806;2023-07-22T01:58:18;101228.34;;;20.82;51.63
77263;BME280;66373;52.334;4.806;2023-07-22T02:00:49;101242.78;;;20.97;51.60
77263;BME280;66373;52.334;4.806;2023-07-22T02:03:16;101249.75;;;20.98;51.25
77263;BME280;66373;52.334;4.806;2023-07-22T02:05:43;101253.25;;;20.97;51.90
77263;BME280;66373;52.334;4.806;2023-07-22T02:08:10;101246.47;;;20.90;51.68
77263;BME280;66373;52.334;4.806;2023-07-22T02:10:37;101170.97;;;20.45;51.70
77263;BME280;66373;52.334;4.806;2023-07-22T02:13:04;101216.41;;;20.74;51.52
77263;BME280;66373;52.334;4.806;2023-07-22T02:15:33;101217.22;;;20.76;51.39
77263;BME280;66373;52.334;4.806;2023-07-22T02:18:00;101205.06;;;20.75;51.51
77263;BME280;66373;52.334;4.806;2023-07-22T02:20:28;101212.00;;;20.76;51.88
77263;BME280;66373;52.334;4.806;2023-07-22T02:22:55;101231.63;;;20.90;51.46
77263;BME280;66373;52.334;4.806;2023-07-22T02:25:22;101229.06;;;20.89;51.53
77263;BME280;66373;52.334;4.806;2023-07-22T02:27:49;101183.00;;;20.52;51.69
77263;BME280;66373;52.334;4.806;2023-07-22T02:30:17;101227.41;;;20.85;51.48
77263;BME280;66373;52.334;4.806;2023-07-22T02:32:46;101222.19;;;20.85;51.75
77263;BME280;66373;52.334;4.806;2023-07-22T02:35:13;101213.59;;;20.80;51.73
77263;BME280;66373;52.334;4.806;2023-07-22T02:37:40;101201.63;;;20.73;51.57
77263;BME280;66373;52.334;4.806;2023-07-22T02:40:08;101223.00;;;20.87;51.66
77263;BME280;66373;52.334;4.806;2023-07-22T02:42:36;101192.06;;;20.72;51.94
77263;BME280;66373;52.334;4.806;2023-07-22T02:45:04;101187.72;;;20.71;51.73
77263;BME280;66373;52.334;4.806;2023-07-22T02:47:33;101210.09;;;20.81;51.83
77263;BME280;66373;52.334;4.806;2023-07-22T02:50:03;101206.84;;;20.73;51.69
77263;BME280;66373;52.334;4.806;2023-07-22T02:52:30;101186.94;;;20.67;51.60
77263;BME280;66373;52.334;4.806;2023-07-22T02:55:08;101212.75;;;20.79;51.64
77263;BME280;66373;52.334;4.806;2023-07-22T02:57:36;101195.66;;;20.67;51.76
77263;BME280;66373;52.334;4.806;2023-07-22T03:00:05;101204.19;;;20.74;51.87
77263;BME280;66373;52.334;4.806;2023-07-22T03:02:34;101214.34;;;20.85;51.51
77263;BME280;66373;52.334;4.806;2023-07-22T03:05:03;101193.19;;;20.61;51.69
77263;BME280;66373;52.334;4.806;2023-07-22T03:07:33;101217.94;;;20.81;51.99
77263;BME280;66373;52.334;4.806;2023-07-22T03:10:00;101215.31;;;20.81;51.77
77263;BME280;66373;52.334;4.806;2023-07-22T03:12:27;101205.84;;;20.78;51.52
77263;BME280;66373;52.334;4.806;2023-07-22T03:14:55;101179.25;;;20.61;51.63
77263;BME280;66373;52.334;4.806;2023-07-22T03:17:22;101223.97;;;20.83;51.80
77263;BME280;66373;52.334;4.806;2023-07-22T03:19:49;101228.34;;;20.82;51.93
77263;BME280;66373;52.334;4.806;2023-07-22T03:22:19;101186.31;;;20.57;51.91
77263;BME280;66373;52.334;4.806;2023-07-22T03:24:46;101209.50;;;20.71;52.13
77263;BME280;66373;52.334;4.806;2023-07-22T03:27:13;101192.47;;;20.55;51.91
77263;BME280;66373;52.334;4.806;2023-07-22T03:29:42;101165.75;;;20.45;51.55
77263;BME280;66373;52.334;4.806;2023-07-22T03:32:10;101168.41;;;20.44;52.08
77263;BME280;66373;52.334;4.806;2023-07-22T03:34:37;101221.66;;;20.72;51.94
77263;BME280;66373;52.334;4.806;2023-07-22T03:37:04;101227.59;;;20.79;52.12
77263;BME280;66373;52.334;4.806;2023-07-22T03:39:32;101149.59;;;20.28;51.83
77263;BME280;66373;52.334;4.806;2023-07-22T03:41:59;101219.09;;;20.71;52.00
77263;BME280;66373;52.334;4.806;2023-07-22T03:44:26;101201.19;;;20.55;52.15
77263;BME280;66373;52.334;4.806;2023-07-22T03:46:54;101199.50;;;20.53;52.16
77263;BME280;66373;52.334;4.806;2023-07-22T03:49:22;101196.84;;;20.54;51.79
77263;BME280;66373;52.334;4.806;2023-07-22T03:51:49;101172.03;;;20.37;52.27
77263;BME280;66373;52.334;4.806;2023-07-22T03:54:16;101199.47;;;20.54;52.01
77263;BME280;66373;52.334;4.806;2023-07-22T03:56:45;101238.19;;;20.74;52.01
77263;BME280;66373;52.334;4.806;2023-07-22T03:59:12;101211.47;;;20.61;52.00
77263;BME280;66373;52.334;4.806;2023-07-22T04:01:39;101223.50;;;20.69;51.85
77263;BME280;66373;52.334;4.806;2023-07-22T04:04:06;101207.22;;;20.57;52.19
77263;BME280;66373;52.334;4.806;2023-07-22T04:06:34;101197.88;;;20.49;51.93
77263;BME280;66373;52.334;4.806;2023-07-22T04:09:01;101232.09;;;20.74;52.41
77263;BME280;66373;52.334;4.806;2023-07-22T04:11:28;101139.41;;;20.19;52.25
77263;BME280;66373;52.334;4.806;2023-07-22T04:13:57;101227.81;;;20.71;52.02
77263;BME280;66373;52.334;4.806;2023-07-22T04:16:24;101167.78;;;20.32;52.34
77263;BME280;66373;52.334;4.806;2023-07-22T04:18:51;101238.25;;;20.71;52.00
77263;BME280;66373;52.334;4.806;2023-07-22T04:21:18;101162.59;;;20.31;51.96
77263;BME280;66373;52.334;4.806;2023-07-22T04:23:46;101231.28;;;20.72;51.99
77263;BME280;66373;52.334;4.806;2023-07-22T04:26:13;101229.56;;;20.71;51.89
77263;BME280;66373;52.334;4.806;2023-07-22T04:28:40;101228.69;;;20.70;52.23
77263;BME280;66373;52.334;4.806;2023-07-22T04:31:08;101166.88;;;20.33;51.97
77263;BME280;66373;52.334;4.806;2023-07-22T04:33:36;101203.03;;;20.52;52.04
77263;BME280;66373;52.334;4.806;2023-07-22T04:36:03;101184.84;;;20.47;52.01
77263;BME280;66373;52.334;4.806;2023-07-22T04:38:30;101124.78;;;20.12;51.69
77263;BME280;66373;52.334;4.806;2023-07-22T04:40:57;101205.50;;;20.56;51.91
77263;BME280;66373;52.334;4.806;2023-07-22T04:43:26;101208.16;;;20.55;52.22
77263;BME280;66373;52.334;4.806;2023-07-22T04:45:53;101207.31;;;20.54;52.13
77263;BME280;66373;52.334;4.806;2023-07-22T04:48:25;101128.34;;;20.08;51.85
77263;BME280;66373;52.334;4.806;2023-07-22T04:50:52;101179.84;;;20.38;52.13
77263;BME280;66373;52.334;4.806;2023-07-22T04:53:21;101221.81;;;20.66;51.84
77263;BME280;66373;52.334;4.806;2023-07-22T04:55:51;101227.00;;;20.67;52.25
77263;BME280;66373;52.334;4.806;2023-07-22T04:58:20;101183.25;;;20.42;52.24
77263;BME280;66373;52.334;4.806;2023-07-22T05:00:50;101153.09;;;20.27;52.22
77263;BME280;66373;52.334;4.806;2023-07-22T05:03:17;101172.06;;;20.35;52.27
77263;BME280;66373;52.334;4.806;2023-07-22T05:05:46;101142.66;;;20.27;52.04
77263;BME280;66373;52.334;4.806;2023-07-22T05:08:13;101199.66;;;20.48;52.26
77263;BME280;66373;52.334;4.806;2023-07-22T05:10:40;101210.69;;;20.58;52.54
77263;BME280;66373;52.334;4.806;2023-07-22T05:13:08;101208.09;;;20.58;52.18
77263;BME280;66373;52.334;4.806;2023-07-22T05:15:35;101206.63;;;20.48;52.62
77263;BME280;66373;52.334;4.806;2023-07-22T05:18:02;101130.13;;;20.06;52.28
77263;BME280;66373;52.334;4.806;2023-07-22T05:20:29;101180.84;;;20.32;52.45
77263;BME280;66373;52.334;4.806;2023-07-22T05:22:58;101146.53;;;20.12;52.36
77263;BME280;66373;52.334;4.806;2023-07-22T05:25:25;101194.38;;;20.50;52.54
77263;BME280;66373;52.334;4.806;2023-07-22T05:27:52;101185.88;;;20.42;52.61
77263;BME280;66373;52.334;4.806;2023-07-22T05:30:19;101213.28;;;20.59;52.75
77263;BME280;66373;52.334;4.806;2023-07-22T05:32:46;101166.94;;;20.30;52.52
77263;BME280;66373;52.334;4.806;2023-07-22T05:35:14;101223.69;;;20.61;52.98
77263;BME280;66373;52.334;4.806;2023-07-22T05:37:40;101197.03;;;20.48;52.98
77263;BME280;66373;52.334;4.806;2023-07-22T05:40:10;101215.88;;;20.59;52.96
77263;BME280;66373;52.334;4.806;2023-07-22T05:42:37;101218.53;;;20.58;52.72
77263;BME280;66373;52.334;4.806;2023-07-22T05:45:05;101216.03;;;20.53;52.94
77263;BME280;66373;52.334;4.806;2023-07-22T05:47:33;101142.22;;;20.10;52.59
77263;BME280;66373;52.334;4.806;2023-07-22T05:50:00;101204.78;;;20.51;53.14
77263;BME280;66373;52.334;4.806;2023-07-22T05:52:27;101215.88;;;20.59;52.68
77263;BME280;66373;52.334;4.806;2023-07-22T05:54:54;101199.59;;;20.50;52.64
77263;BME280;66373;52.334;4.806;2023-07-22T05:57:22;101129.16;;;20.10;53.02
77263;BME280;66373;52.334;4.806;2023-07-22T05:59:50;101210.75;;;20.56;52.90
77263;BME280;66373;52.334;4.806;2023-07-22T06:02:17;101126.63;;;20.07;53.08
77263;BME280;66373;52.334;4.806;2023-07-22T06:04:45;101172.91;;;20.37;52.93
77263;BME280;66373;52.334;4.806;2023-07-22T06:07:12;101133.50;;;20.11;52.74
77263;BME280;66373;52.334;4.806;2023-07-22T06:09:39;101190.09;;;20.47;52.70
77263;BME280;66373;52.334;4.806;2023-07-22T06:12:07;101196.97;;;20.51;53.00
77263;BME280;66373;52.334;4.806;2023-07-22T06:14:36;101201.94;;;20.60;52.82
77263;BME280;66373;52.334;4.806;2023-07-22T06:17:03;101200.28;;;20.56;52.80
77263;BME280;66373;52.334;4.806;2023-07-22T06:19:30;101196.84;;;20.54;52.78
77263;BME280;66373;52.334;4.806;2023-07-22T06:21:57;101196.00;;;20.54;53.23
77263;BME280;66373;52.334;4.806;2023-07-22T06:24:24;101190.84;;;20.52;53.08
77263;BME280;66373;52.334;4.806;2023-07-22T06:26:52;101123.88;;;20.13;53.15
77263;BME280;66373;52.334;4.806;2023-07-22T06:29:19;101078.34;;;19.89;52.87
77263;BME280;66373;52.334;4.806;2023-07-22T06:31:48;101210.59;;;20.62;53.22
77263;BME280;66373;52.334;4.806;2023-07-22T06:34:15;101126.19;;;20.25;53.17
77263;BME280;66373;52.334;4.806;2023-07-22T06:36:42;101135.81;;;20.23;53.60
77263;BME280;66373;52.334;4.806;2023-07-22T06:39:09;101116.63;;;20.24;53.21
77263;BME280;66373;52.334;4.806;2023-07-22T06:41:36;101188.78;;;20.63;53.21
77263;BME280;66373;52.334;4.806;2023-07-22T06:44:05;101196.63;;;20.63;53.57
77263;BME280;66373;52.334;4.806;2023-07-22T06:46:32;101177.56;;;20.58;53.67
77263;BME280;66373;52.334;4.806;2023-07-22T06:49:01;101087.53;;;20.04;53.29
77263;BME280;66373;52.334;4.806;2023-07-22T06:51:28;101146.09;;;20.29;54.23
77263;BME280;66373;52.334;4.806;2023-07-22T06:53:55;101087.72;;;19.97;53.58
77263;BME280;66373;52.334;4.806;2023-07-22T06:56:22;101194.91;;;20.62;54.24
77263;BME280;66373;52.334;4.806;2023-07-22T06:58:50;101189.69;;;20.62;53.70
77263;BME280;66373;52.334;4.806;2023-07-22T07:01:17;101153.56;;;20.44;54.14
77263;BME280;66373;52.334;4.806;2023-07-22T07:03:44;101197.53;;;20.62;53.54
77263;BME280;66373;52.334;4.806;2023-07-22T07:06:13;101121.91;;;20.22;53.97
77263;BME280;66373;52.334;4.806;2023-07-22T07:08:40;101190.50;;;20.64;54.15
77263;BME280;66373;52.334;4.806;2023-07-22T07:11:07;101195.72;;;20.64;54.39
77263;BME280;66373;52.334;4.806;2023-07-22T07:13:34;101153.69;;;20.40;54.34
77263;BME280;66373;52.334;4.806;2023-07-22T07:16:19;101200.94;;;20.64;54.39
77263;BME280;66373;52.334;4.806;2023-07-22T07:18:48;101115.97;;;20.16;54.68
77263;BME280;66373;52.334;4.806;2023-07-22T07:21:48;101119.31;;;20.21;54.24
77263;BME280;66373;52.334;4.806;2023-07-22T07:24:15;101180.19;;;20.58;54.37
77263;BME280;66373;52.334;4.806;2023-07-22T07:26:42;101145.81;;;20.41;54.70
77263;BME280;66373;52.334;4.806;2023-07-22T07:29:09;101187.88;;;20.64;54.86
77263;BME280;66373;52.334;4.806;2023-07-22T07:31:37;101190.47;;;20.66;54.48
77263;BME280;66373;52.334;4.806;2023-07-22T07:34:04;101181.00;;;20.60;55.23
77263;BME280;66373;52.334;4.806;2023-07-22T07:36:31;101192.16;;;20.67;54.44
77263;BME280;66373;52.334;4.806;2023-07-22T07:39:00;101163.97;;;20.47;54.87
77263;BME280;66373;52.334;4.806;2023-07-22T07:41:28;101191.31;;;20.66;55.26
77263;BME280;66373;52.334;4.806;2023-07-22T07:43:55;101188.75;;;20.65;55.72
77263;BME280;66373;52.334;4.806;2023-07-22T07:46:23;101126.00;;;20.31;55.40
77263;BME280;66373;52.334;4.806;2023-07-22T07:48:52;101150.06;;;20.45;55.35
77263;BME280;66373;52.334;4.806;2023-07-22T07:51:20;101182.56;;;20.67;55.57
77263;BME280;66373;52.334;4.806;2023-07-22T07:53:48;101170.56;;;20.60;55.01
77263;BME280;66373;52.334;4.806;2023-07-22T07:56:17;101186.91;;;20.69;55.15
77263;BME280;66373;52.334;4.806;2023-07-22T07:58:46;101184.28;;;20.69;55.33
77263;BME280;66373;52.334;4.806;2023-07-22T08:01:14;101169.59;;;20.64;55.17
77263;BME280;66373;52.334;4.806;2023-07-22T08:03:42;101182.50;;;20.71;55.24
77263;BME280;66373;52.334;4.806;2023-07-22T08:06:10;101174.66;;;20.71;55.60
77263;BME280;66373;52.334;4.806;2023-07-22T08:08:38;101162.63;;;20.63;55.80
77263;BME280;66373;52.334;4.806;2023-07-22T08:11:07;101169.47;;;20.69;55.43
77263;BME280;66373;52.334;4.806;2023-07-22T08:13:36;101151.44;;;20.58;55.58
77263;BME280;66373;52.334;4.806;2023-07-22T08:16:04;101163.38;;;20.69;55.90
77263;BME280;66373;52.334;4.806;2023-07-22T08:18:32;101149.56;;;20.63;55.53
77263;BME280;66373;52.334;4.806;2023-07-22T08:21:00;101134.97;;;20.55;56.16
77263;BME280;66373;52.334;4.806;2023-07-22T08:23:28;101107.56;;;20.39;56.02
77263;BME280;66373;52.334;4.806;2023-07-22T08:25:55;101124.09;;;20.39;55.93
77263;BME280;66373;52.334;4.806;2023-07-22T08:28:22;101117.06;;;20.41;56.29
77263;BME280;66373;52.334;4.806;2023-07-22T08:30:54;101175.47;;;20.73;56.06
77263;BME280;66373;52.334;4.806;2023-07-22T08:33:22;101127.28;;;20.50;55.73
77263;BME280;66373;52.334;4.806;2023-07-22T08:35:50;101081.97;;;20.17;56.33
77263;BME280;66373;52.334;4.806;2023-07-22T08:38:17;101146.06;;;20.64;55.74
77263;BME280;66373;52.334;4.806;2023-07-22T08:40:48;101156.44;;;20.67;56.01
77263;BME280;66373;52.334;4.806;2023-07-22T08:43:16;101169.31;;;20.75;55.74
77263;BME280;66373;52.334;4.806;2023-07-22T08:45:47;101160.66;;;20.73;55.71
77263;BME280;66373;52.334;4.806;2023-07-22T08:48:17;101137.41;;;20.62;55.64
77263;BME280;66373;52.334;4.806;2023-07-22T08:50:46;101143.56;;;20.60;55.88
77263;BME280;66373;52.334;4.806;2023-07-22T08:53:17;101152.84;;;20.72;56.13
77263;BME280;66373;52.334;4.806;2023-07-22T08:55:46;101104.97;;;20.37;56.04
77263;BME280;66373;52.334;4.806;2023-07-22T08:58:13;101167.50;;;20.77;55.83
77263;BME280;66373;52.334;4.806;2023-07-22T09:00:41;101161.59;;;20.71;55.69
77263;BME280;66373;52.334;4.806;2023-07-22T09:03:09;101177.09;;;20.77;55.90
77263;BME280;66373;52.334;4.806;2023-07-22T09:05:38;101170.25;;;20.73;56.17
77263;BME280;66373;52.334;4.806;2023-07-22T09:08:07;101157.50;;;20.60;55.82
77263;BME280;66373;52.334;4.806;2023-07-22T09:10:35;101178.91;;;20.75;55.45
77263;BME280;66373;52.334;4.806;2023-07-22T09:13:03;101185.84;;;20.76;55.71
77263;BME280;66373;52.334;4.806;2023-07-22T09:15:32;101178.16;;;20.70;55.72
77263;BME280;66373;52.334;4.806;2023-07-22T09:18:01;101164.47;;;20.60;55.70
77263;BME280;66373;52.334;4.806;2023-07-22T09:20:28;101158.38;;;20.59;55.99
77263;BME280;66373;52.334;4.806;2023-07-22T09:22:59;101184.38;;;20.65;55.94
77263;BME280;66373;52.334;4.806;2023-07-22T09:25:27;101189.38;;;20.75;55.41
77263;BME280;66373;52.334;4.806;2023-07-22T09:27:58;101185.94;;;20.73;55.54
77263;BME280;66373;52.334;4.806;2023-07-22T09:30:26;101179.91;;;20.69;55.52
77263;BME280;66373;52.334;4.806;2023-07-22T09:32:54;101167.91;;;20.62;55.68
77263;BME280;66373;52.334;4.806;2023-07-22T09:35:22;101194.59;;;20.75;55.49
77263;BME280;66373;52.334;4.806;2023-07-22T09:37:49;101179.91;;;20.69;55.39
77263;BME280;66373;52.334;4.806;2023-07-22T09:40:19;101176.41;;;20.70;55.77
77263;BME280;66373;52.334;4.806;2023-07-22T09:42:48;101172.97;;;20.68;55.83
77263;BME280;66373;52.334;4.806;2023-07-22T09:45:15;101098.44;;;20.21;55.57
77263;BME280;66373;52.334;4.806;2023-07-22T09:47:44;101120.59;;;20.40;55.57
77263;BME280;66373;52.334;4.806;2023-07-22T09:50:15;101178.13;;;20.71;55.46
77263;BME280;66373;52.334;4.806;2023-07-22T09:52:45;101144.69;;;20.51;55.38
77263;BME280;66373;52.334;4.806;2023-07-22T09:55:15;101177.22;;;20.72;55.21
77263;BME280;66373;52.334;4.806;2023-07-22T09:57:46;101094.91;;;20.22;55.33
77263;BME280;66373;52.334;4.806;2023-07-22T10:00:15;101189.28;;;20.78;55.33
77263;BME280;66373;52.334;4.806;2023-07-22T10:02:46;101143.59;;;20.58;55.05
77263;BME280;66373;52.334;4.806;2023-07-22T10:05:16;101173.84;;;20.69;55.26
77263;BME280;66373;52.334;4.806;2023-07-22T10:07:46;101182.41;;;20.74;55.48
77263;BME280;66373;52.334;4.806;2023-07-22T10:10:15;101170.41;;;20.66;55.58
77263;BME280;66373;52.334;4.806;2023-07-22T10:12:43;101155.69;;;20.62;55.17
77263;BME280;66373;52.334;4.806;2023-07-22T10:15:13;101119.66;;;20.43;55.30
77263;BME280;66373;52.334;4.806;2023-07-22T10:17:41;101192.59;;;20.83;55.28
77263;BME280;66373;52.334;4.806;2023-07-22T10:20:09;101190.81;;;20.85;54.99
77263;BME280;66373;52.334;4.806;2023-07-22T10:22:42;101186.53;;;20.82;55.24
77263;BME280;66373;52.334;4.806;2023-07-22T10:25:11;101191.06;;;20.76;55.41
77263;BME280;66373;52.334;4.806;2023-07-22T10:27:39;101174.22;;;20.53;55.08
77263;BME280;66373;52.334;4.806;2023-07-22T10:30:08;101142.84;;;20.21;55.57
77263;BME280;66373;52.334;4.806;2023-07-22T10:32:39;101182.34;;;20.43;55.62
77263;BME280;66373;52.334;4.806;2023-07-22T10:35:08;101174.00;;;20.27;55.46
77263;BME280;66373;52.334;4.806;2023-07-22T10:37:37;101109.94;;;19.78;55.49
77263;BME280;66373;52.334;4.806;2023-07-22T10:40:17;101195.56;;;20.35;55.40
77263;BME280;66373;52.334;4.806;2023-07-22T10:42:53;101206.03;;;20.35;55.56
77263;BME280;66373;52.334;4.806;2023-07-22T10:45:29;101111.56;;;19.82;55.12
77263;BME280;66373;52.334;4.806;2023-07-22T10:48:06;101213.81;;;20.37;55.66
77263;BME280;66373;52.334;4.806;2023-07-22T10:50:43;101165.63;;;20.14;56.08
77263;BME280;66373;52.334;4.806;2023-07-22T10:53:14;101099.66;;;19.72;56.16
77263;BME280;66373;52.334;4.806;2023-07-22T10:56:07;101187.06;;;20.27;56.24
77263;BME280;66373;52.334;4.806;2023-07-22T10:59:05;101204.31;;;20.34;56.22
77263;BME280;66373;52.334;4.806;2023-07-22T11:01:36;101206.91;;;20.34;56.52
77263;BME280;66373;52.334;4.806;2023-07-22T11:04:11;101203.41;;;20.35;56.51
77263;BME280;66373;52.334;4.806;2023-07-22T11:06:39;101202.50;;;20.36;56.78
77263;BME280;66373;52.334;4.806;2023-07-22T11:09:40;101191.16;;;20.39;55.95
77263;BME280;66373;52.334;4.806;2023-07-22T11:12:12;101145.59;;;20.15;56.02
77263;BME280;66373;52.334;4.806;2023-07-22T11:14:47;101190.25;;;20.41;56.46
77263;BME280;66373;52.334;4.806;2023-07-22T11:17:14;101179.75;;;20.43;56.15
77263;BME280;66373;52.334;4.806;2023-07-22T11:19:45;101137.00;;;20.10;56.21
77263;BME280;66373;52.334;4.806;2023-07-22T11:22:16;101130.00;;;20.12;55.95
77263;BME280;66373;52.334;4.806;2023-07-22T11:24:43;101181.50;;;20.42;56.09
77263;BME280;66373;52.334;4.806;2023-07-22T11:27:12;101175.38;;;20.43;56.25
77263;BME280;66373;52.334;4.806;2023-07-22T11:29:40;101172.69;;;20.46;56.36
77263;BME280;66373;52.334;4.806;2023-07-22T11:32:14;101170.03;;;20.48;56.41
77263;BME280;66373;52.334;4.806;2023-07-22T11:34:43;101163.06;;;20.48;56.20
77263;BME280;66373;52.334;4.806;2023-07-22T11:37:11;101158.09;;;20.36;56.12
77263;BME280;66373;52.334;4.806;2023-07-22T11:39:39;101074.03;;;19.88;55.75
77263;BME280;66373;52.334;4.806;2023-07-22T11:42:07;101174.47;;;20.44;55.91
77263;BME280;66373;52.334;4.806;2023-07-22T11:44:34;101135.66;;;20.27;55.27
77263;BME280;66373;52.334;4.806;2023-07-22T11:47:02;101169.19;;;20.47;55.14
77263;BME280;66373;52.334;4.806;2023-07-22T11:49:33;101173.50;;;20.48;54.44
77263;BME280;66373;52.334;4.806;2023-07-22T11:52:03;101119.41;;;20.18;53.89
77263;BME280;66373;52.334;4.806;2023-07-22T11:54:32;101098.66;;;20.12;54.07
77263;BME280;66373;52.334;4.806;2023-07-22T11:57:10;101143.94;;;20.46;53.88
77263;BME280;66373;52.334;4.806;2023-07-22T11:59:39;101178.44;;;20.59;53.94
77263;BME280;66373;52.334;4.806;2023-07-22T12:02:06;101166.25;;;20.58;53.99
77263;BME280;66373;52.334;4.806;2023-07-22T12:04:34;101114.03;;;20.24;53.72
77263;BME280;66373;52.334;4.806;2023-07-22T12:07:03;101109.63;;;20.26;53.52
77263;BME280;66373;52.334;4.806;2023-07-22T12:09:31;101155.78;;;20.59;53.54
77263;BME280;66373;52.334;4.806;2023-07-22T12:11:59;101161.00;;;20.59;53.20
77263;BME280;66373;52.334;4.806;2023-07-22T12:14:34;101166.16;;;20.62;53.44
77263;BME280;66373;52.334;4.806;2023-07-22T12:17:01;101146.47;;;20.49;52.90
77263;BME280;66373;52.334;4.806;2023-07-22T12:19:29;101143.00;;;20.49;53.12
77263;BME280;66373;52.334;4.806;2023-07-22T12:21:56;101155.16;;;20.51;53.05
77263;BME280;66373;52.334;4.806;2023-07-22T12:24:26;101174.84;;;20.63;53.12
77263;BME280;66373;52.334;4.806;2023-07-22T12:26:54;101168.84;;;20.59;53.13
77263;BME280;66373;52.334;4.806;2023-07-22T12:29:21;101172.19;;;20.64;53.13
77263;BME280;66373;52.334;4.806;2023-07-22T12:31:49;101145.78;;;20.43;52.76
77263;BME280;66373;52.334;4.806;2023-07-22T12:34:16;101072.97;;;19.95;53.10
77263;BME280;66373;52.334;4.806;2023-07-22T12:36:43;101103.69;;;20.19;52.50
77263;BME280;66373;52.334;4.806;2023-07-22T12:39:10;101137.19;;;20.38;52.71
77263;BME280;66373;52.334;4.806;2023-07-22T12:41:38;101184.59;;;20.56;52.66
77263;BME280;66373;52.334;4.806;2023-07-22T12:44:06;101136.53;;;20.28;52.87
77263;BME280;66373;52.334;4.806;2023-07-22T12:46:33;101161.41;;;20.44;52.60
77263;BME280;66373;52.334;4.806;2023-07-22T12:49:00;101134.69;;;20.31;52.72
77263;BME280;66373;52.334;4.806;2023-07-22T12:51:27;101151.78;;;20.46;52.65
77263;BME280;66373;52.334;4.806;2023-07-22T12:53:54;101168.22;;;20.51;52.38
77263;BME280;66373;52.334;4.806;2023-07-22T12:56:22;101172.69;;;20.46;52.17
77263;BME280;66373;52.334;4.806;2023-07-22T12:58:53;101115.03;;;20.18;52.64